createdAt,value
2017-01-22T00:00:02.408Z,-59
2017-01-22T00:01:02.448Z,-59
2017-01-22T00:02:02.411Z,-58
2017-01-22T00:03:02.429Z,-59
2017-01-22T00:04:02.455Z,-58
2017-01-22T00:05:02.447Z,-58
2017-01-22T00:06:02.402Z,-59
2017-01-22T00:07:02.414Z,-59
2017-01-22T00:08:02.428Z,-60
2017-01-22T00:09:02.429Z,-59
2017-01-22T00:10:02.433Z,-59
2017-01-22T00:11:02.390Z,-60
2017-01-22T00:12:02.412Z,-58
2017-01-22T00:13:02.422Z,-61
2017-01-22T00:14:02.436Z,-59
2017-01-22T00:15:02.440Z,-59
2017-01-22T00:16:02.407Z,-59
2017-01-22T00:17:02.439Z,-59
2017-01-22T00:18:02.495Z,-59
2017-01-22T00:19:02.427Z,-61
2017-01-22T00:20:02.437Z,-58
2017-01-22T00:21:02.479Z,-59
2017-01-22T00:22:02.440Z,-60
2017-01-22T00:23:02.429Z,-59
2017-01-22T00:24:02.435Z,-59
2017-01-22T00:25:02.444Z,-59
2017-01-22T00:26:02.424Z,-60
2017-01-22T00:27:02.430Z,-59
2017-01-22T00:28:02.433Z,-59
2017-01-22T00:29:02.470Z,-59
2017-01-22T00:30:02.455Z,-59
2017-01-22T00:31:02.454Z,-59
2017-01-22T00:32:02.483Z,-59
2017-01-22T00:33:02.472Z,-59
2017-01-22T00:34:02.458Z,-59
2017-01-22T00:35:02.445Z,-59
2017-01-22T00:36:02.410Z,-59
2017-01-22T00:37:02.420Z,-60
2017-01-22T00:38:02.445Z,-58
2017-01-22T00:39:02.460Z,-57
2017-01-22T00:40:02.429Z,-61
2017-01-22T00:41:02.460Z,-59
2017-01-22T00:42:02.457Z,-60
2017-01-22T00:43:02.444Z,-60
2017-01-22T00:44:02.476Z,-58
2017-01-22T00:45:02.422Z,-59
2017-01-22T00:46:02.483Z,-60
2017-01-22T00:47:02.452Z,-59
2017-01-22T00:48:02.439Z,-60
2017-01-22T00:49:02.452Z,-59
2017-01-22T00:50:02.430Z,-59
2017-01-22T00:51:02.466Z,-59
2017-01-22T00:52:02.456Z,-59
2017-01-22T00:53:02.479Z,-59
2017-01-22T00:54:02.427Z,-59
2017-01-22T00:55:02.447Z,-60
2017-01-22T00:56:02.447Z,-59
2017-01-22T00:57:02.472Z,-58
2017-01-22T00:58:02.428Z,-58
2017-01-22T00:59:02.464Z,-59
2017-01-22T01:00:02.468Z,-59
2017-01-22T01:01:02.426Z,-59
2017-01-22T01:02:02.469Z,-59
2017-01-22T01:03:02.497Z,-59
2017-01-22T01:04:02.418Z,-59
2017-01-22T01:05:02.470Z,-60
2017-01-22T01:06:02.427Z,-60
2017-01-22T01:07:02.421Z,-58
2017-01-22T01:08:02.471Z,-59
2017-01-22T01:09:02.426Z,-58
2017-01-22T01:10:02.470Z,-56
2017-01-22T01:11:02.464Z,-60
2017-01-22T01:12:02.444Z,-59
2017-01-22T01:13:02.443Z,-59
2017-01-22T01:14:02.470Z,-57
2017-01-22T01:15:02.478Z,-58
2017-01-22T01:16:02.437Z,-56
2017-01-22T01:17:02.480Z,-59
2017-01-22T01:18:02.468Z,-59
2017-01-22T01:19:02.455Z,-59
2017-01-22T01:20:02.456Z,-59
2017-01-22T01:21:02.444Z,-59
2017-01-22T01:22:02.457Z,-59
2017-01-22T01:23:02.460Z,-59
2017-01-22T01:24:02.462Z,-59
2017-01-22T01:25:02.462Z,-59
2017-01-22T01:26:02.461Z,-59
2017-01-22T01:27:02.468Z,-58
2017-01-22T01:28:02.480Z,-57
2017-01-22T01:29:02.460Z,-57
2017-01-22T01:30:02.470Z,-59
2017-01-22T01:31:02.497Z,-59
2017-01-22T01:32:02.470Z,-59
2017-01-22T01:33:02.440Z,-59
2017-01-22T01:34:02.460Z,-60
2017-01-22T01:35:02.463Z,-60
2017-01-22T01:36:02.457Z,-59
2017-01-22T01:37:02.462Z,-58
2017-01-22T01:38:02.468Z,-59
2017-01-22T01:39:02.471Z,-58
2017-01-22T01:40:02.483Z,-58
2017-01-22T01:41:02.462Z,-58
2017-01-22T01:42:02.472Z,-59
2017-01-22T01:43:02.473Z,-59
2017-01-22T01:44:02.465Z,-58
2017-01-22T01:45:02.458Z,-59
2017-01-22T01:46:02.463Z,-60
2017-01-22T01:47:02.459Z,-57
2017-01-22T01:48:02.473Z,-58
2017-01-22T01:49:02.476Z,-59
2017-01-22T01:50:02.480Z,-62
2017-01-22T01:51:02.473Z,-60
2017-01-22T01:52:02.476Z,-61
2017-01-22T01:53:02.465Z,-60
2017-01-22T01:54:02.473Z,-59
2017-01-22T01:55:02.506Z,-60
2017-01-22T01:56:02.511Z,-60
2017-01-22T01:57:02.498Z,-60
2017-01-22T01:58:02.464Z,-60
2017-01-22T01:59:02.477Z,-60
2017-01-22T02:00:02.487Z,-60
2017-01-22T02:01:02.491Z,-58
2017-01-22T02:02:02.467Z,-60
2017-01-22T02:03:02.519Z,-58
2017-01-22T02:04:02.490Z,-58
2017-01-22T02:05:02.470Z,-59
2017-01-22T02:06:02.484Z,-58
2017-01-22T02:07:02.474Z,-58
2017-01-22T02:08:02.489Z,-59
2017-01-22T02:09:02.482Z,-60
2017-01-22T02:10:02.492Z,-59
2017-01-22T02:11:02.498Z,-61
2017-01-22T02:12:02.484Z,-60
2017-01-22T02:13:02.516Z,-60
2017-01-22T02:14:02.513Z,-60
2017-01-22T02:15:02.476Z,-59
2017-01-22T02:16:02.485Z,-60
2017-01-22T02:17:02.503Z,-59
2017-01-22T02:18:02.473Z,-58
2017-01-22T02:19:02.472Z,-59
2017-01-22T02:20:02.493Z,-59
2017-01-22T02:21:02.471Z,-59
2017-01-22T02:22:02.491Z,-59
2017-01-22T02:23:02.461Z,-59
2017-01-22T02:24:02.478Z,-59
2017-01-22T02:25:02.497Z,-59
2017-01-22T02:26:02.506Z,-59
2017-01-22T02:27:02.481Z,-59
2017-01-22T02:28:02.490Z,-59
2017-01-22T02:29:02.522Z,-59
2017-01-22T02:30:02.500Z,-59
2017-01-22T02:31:02.471Z,-59
2017-01-22T02:32:02.487Z,-59
2017-01-22T02:33:02.515Z,-59
2017-01-22T02:34:02.488Z,-60
2017-01-22T02:35:02.503Z,-59
2017-01-22T02:36:02.519Z,-59
2017-01-22T02:37:02.478Z,-58
2017-01-22T02:38:02.503Z,-57
2017-01-22T02:39:02.488Z,-59
2017-01-22T02:40:02.484Z,-59
2017-01-22T02:41:02.512Z,-59
2017-01-22T02:42:02.505Z,-59
2017-01-22T02:43:02.496Z,-59
2017-01-22T02:44:02.515Z,-59
2017-01-22T02:45:02.506Z,-60
2017-01-22T02:46:02.519Z,-59
2017-01-22T02:47:02.508Z,-59
2017-01-22T02:48:02.543Z,-59
2017-01-22T02:49:02.529Z,-59
2017-01-22T02:50:02.508Z,-59
2017-01-22T02:51:02.499Z,-60
2017-01-22T02:52:02.526Z,-60
2017-01-22T02:53:02.499Z,-59
2017-01-22T02:54:02.526Z,-60
2017-01-22T02:55:02.504Z,-60
2017-01-22T02:56:02.515Z,-60
2017-01-22T02:57:02.488Z,-59
2017-01-22T02:58:02.499Z,-59
2017-01-22T02:59:02.509Z,-59
2017-01-22T03:00:02.556Z,-59
2017-01-22T03:01:02.538Z,-59
2017-01-22T03:02:02.513Z,-59
2017-01-22T03:03:02.507Z,-59
2017-01-22T03:04:02.524Z,-59
2017-01-22T03:05:02.552Z,-59
2017-01-22T03:06:02.525Z,-59
2017-01-22T03:07:02.534Z,-59
2017-01-22T03:08:02.533Z,-58
2017-01-22T03:09:02.483Z,-58
2017-01-22T03:10:02.506Z,-59
2017-01-22T03:11:02.549Z,-59
2017-01-22T03:12:02.496Z,-60
2017-01-22T03:13:02.510Z,-60
2017-01-22T03:14:02.516Z,-58
2017-01-22T03:15:02.519Z,-58
2017-01-22T03:16:02.525Z,-58
2017-01-22T03:17:02.518Z,-58
2017-01-22T03:18:02.512Z,-58
2017-01-22T03:19:02.524Z,-55
2017-01-22T03:20:02.523Z,-59
2017-01-22T03:21:02.530Z,-59
2017-01-22T03:22:02.533Z,-59
2017-01-22T03:23:02.513Z,-59
2017-01-22T03:24:02.523Z,-59
2017-01-22T03:25:02.540Z,-59
2017-01-22T03:26:02.515Z,-59
2017-01-22T03:27:02.532Z,-58
2017-01-22T03:28:02.508Z,-58
2017-01-22T03:29:02.520Z,-59
2017-01-22T03:30:02.550Z,-58
2017-01-22T03:31:02.536Z,-58
2017-01-22T03:32:02.520Z,-58
2017-01-22T03:33:02.519Z,-58
2017-01-22T03:34:02.509Z,-60
2017-01-22T03:35:02.529Z,-58
2017-01-22T03:36:02.497Z,-59
2017-01-22T03:37:02.544Z,-59
2017-01-22T03:38:02.533Z,-59
2017-01-22T03:39:02.540Z,-60
2017-01-22T03:40:02.534Z,-60
2017-01-22T03:41:02.541Z,-60
2017-01-22T03:42:02.563Z,-58
2017-01-22T03:43:02.544Z,-60
2017-01-22T03:44:02.520Z,-60
2017-01-22T03:45:02.523Z,-60
2017-01-22T03:46:02.542Z,-57
2017-01-22T03:47:02.509Z,-59
2017-01-22T03:48:02.530Z,-56
2017-01-22T03:49:02.520Z,-55
2017-01-22T03:50:02.532Z,-60
2017-01-22T03:51:02.523Z,-60
2017-01-22T03:52:02.537Z,-59
2017-01-22T03:53:02.577Z,-58
2017-01-22T03:54:02.547Z,-59
2017-01-22T03:55:02.552Z,-57
2017-01-22T03:56:02.549Z,-59
2017-01-22T03:57:02.525Z,-59
2017-01-22T03:58:02.555Z,-59
2017-01-22T03:59:02.545Z,-59
2017-01-22T04:00:02.543Z,-58
2017-01-22T04:01:02.549Z,-59
2017-01-22T04:02:02.540Z,-58
2017-01-22T04:03:02.549Z,-58
2017-01-22T04:04:02.569Z,-59
2017-01-22T04:05:02.552Z,-58
2017-01-22T04:06:02.563Z,-58
2017-01-22T04:07:02.535Z,-59
2017-01-22T04:08:02.535Z,-58
2017-01-22T04:09:02.542Z,-59
2017-01-22T04:10:02.555Z,-59
2017-01-22T04:11:02.549Z,-59
2017-01-22T04:12:02.572Z,-59
2017-01-22T04:13:02.556Z,-60
2017-01-22T04:14:02.539Z,-60
2017-01-22T04:15:02.556Z,-59
2017-01-22T04:16:02.564Z,-59
2017-01-22T04:17:02.551Z,-57
2017-01-22T04:18:02.569Z,-58
2017-01-22T04:19:02.561Z,-59
2017-01-22T04:20:02.540Z,-59
2017-01-22T04:21:02.600Z,-59
2017-01-22T04:22:02.546Z,-58
2017-01-22T04:23:02.542Z,-57
2017-01-22T04:24:02.553Z,-59
2017-01-22T04:25:02.573Z,-59
2017-01-22T04:26:02.567Z,-59
2017-01-22T04:27:02.558Z,-58
2017-01-22T04:28:02.545Z,-59
2017-01-22T04:29:02.597Z,-56
2017-01-22T04:30:02.562Z,-59
2017-01-22T04:31:02.554Z,-59
2017-01-22T04:32:02.544Z,-59
2017-01-22T04:33:02.550Z,-58
2017-01-22T04:34:02.561Z,-58
2017-01-22T04:35:02.560Z,-58
2017-01-22T04:36:02.570Z,-59
2017-01-22T04:37:02.572Z,-58
2017-01-22T04:38:02.530Z,-59
2017-01-22T04:39:02.554Z,-58
2017-01-22T04:40:02.561Z,-61
2017-01-22T04:41:02.565Z,-60
2017-01-22T04:42:02.524Z,-59
2017-01-22T04:43:02.538Z,-59
2017-01-22T04:44:02.539Z,-59
2017-01-22T04:45:02.565Z,-59
2017-01-22T04:46:02.571Z,-60
2017-01-22T04:47:02.560Z,-60
2017-01-22T04:48:02.553Z,-60
2017-01-22T04:49:02.568Z,-60
2017-01-22T04:50:02.568Z,-60
2017-01-22T04:51:02.557Z,-60
2017-01-22T04:52:02.550Z,-60
2017-01-22T04:53:02.552Z,-60
2017-01-22T04:54:02.578Z,-60
2017-01-22T04:55:02.576Z,-60
2017-01-22T04:56:02.571Z,-60
2017-01-22T04:57:02.592Z,-60
2017-01-22T04:58:02.577Z,-59
2017-01-22T04:59:02.567Z,-60
2017-01-22T05:00:02.554Z,-59
2017-01-22T05:01:02.572Z,-59
2017-01-22T05:02:02.567Z,-59
2017-01-22T05:03:02.610Z,-60
2017-01-22T05:04:02.592Z,-60
2017-01-22T05:05:02.555Z,-60
2017-01-22T05:06:02.592Z,-59
2017-01-22T05:07:02.574Z,-57
2017-01-22T05:08:02.565Z,-58
2017-01-22T05:09:02.566Z,-59
2017-01-22T05:10:02.559Z,-56
2017-01-22T05:11:02.607Z,-59
2017-01-22T05:12:02.599Z,-59
2017-01-22T05:13:02.603Z,-58
2017-01-22T05:14:02.591Z,-59
2017-01-22T05:15:02.582Z,-59
2017-01-22T05:16:02.583Z,-59
2017-01-22T05:17:02.566Z,-58
2017-01-22T05:18:02.606Z,-59
2017-01-22T05:19:02.615Z,-58
2017-01-22T05:20:02.578Z,-58
2017-01-22T05:21:02.593Z,-57
2017-01-22T05:22:02.582Z,-59
2017-01-22T05:23:02.613Z,-58
2017-01-22T05:24:02.570Z,-59
2017-01-22T05:25:02.590Z,-59
2017-01-22T05:26:02.577Z,-58
2017-01-22T05:27:02.581Z,-58
2017-01-22T05:28:02.590Z,-59
2017-01-22T05:29:02.550Z,-58
2017-01-22T05:30:02.597Z,-59
2017-01-22T05:31:02.584Z,-59
2017-01-22T05:32:02.582Z,-59
2017-01-22T05:33:02.563Z,-58
2017-01-22T05:34:02.620Z,-60
2017-01-22T05:35:02.581Z,-59
2017-01-22T05:36:02.583Z,-58
2017-01-22T05:37:02.622Z,-59
2017-01-22T05:38:02.578Z,-60
2017-01-22T05:39:02.585Z,-59
2017-01-22T05:40:02.595Z,-58
2017-01-22T05:41:02.583Z,-60
2017-01-22T05:42:02.583Z,-56
2017-01-22T05:43:02.619Z,-58
2017-01-22T05:44:02.576Z,-59
2017-01-22T05:45:02.596Z,-60
2017-01-22T05:46:02.618Z,-60
2017-01-22T05:47:02.640Z,-60
2017-01-22T05:48:02.597Z,-59
2017-01-22T05:49:02.601Z,-59
2017-01-22T05:50:02.597Z,-60
2017-01-22T05:51:02.645Z,-59
2017-01-22T05:52:02.612Z,-60
2017-01-22T05:53:02.620Z,-59
2017-01-22T05:54:02.598Z,-58
2017-01-22T05:55:02.599Z,-59
2017-01-22T05:56:02.595Z,-59
2017-01-22T05:57:02.585Z,-59
2017-01-22T05:58:02.596Z,-60
2017-01-22T05:59:02.614Z,-59
2017-01-22T06:00:02.610Z,-59
2017-01-22T06:01:02.585Z,-60
2017-01-22T06:02:02.612Z,-59
2017-01-22T06:03:02.599Z,-60
2017-01-22T06:04:02.636Z,-58
2017-01-22T06:05:02.608Z,-58
2017-01-22T06:06:02.599Z,-59
2017-01-22T06:07:02.587Z,-59
2017-01-22T06:08:02.611Z,-59
2017-01-22T06:09:02.611Z,-57
2017-01-22T06:10:02.620Z,-60
2017-01-22T06:11:02.598Z,-58
2017-01-22T06:12:02.597Z,-58
2017-01-22T06:13:02.592Z,-59
2017-01-22T06:14:02.626Z,-58
2017-01-22T06:15:02.611Z,-59
2017-01-22T06:16:02.611Z,-59
2017-01-22T06:17:02.612Z,-59
2017-01-22T06:18:02.629Z,-59
2017-01-22T06:19:02.617Z,-59
2017-01-22T06:20:02.632Z,-59
2017-01-22T06:21:02.606Z,-59
2017-01-22T06:22:02.598Z,-59
2017-01-22T06:23:02.621Z,-56
2017-01-22T06:24:02.637Z,-58
2017-01-22T06:25:02.617Z,-58
2017-01-22T06:26:02.619Z,-58
2017-01-22T06:27:02.621Z,-56
2017-01-22T06:28:02.613Z,-59
2017-01-22T06:29:02.614Z,-57
2017-01-22T06:30:02.619Z,-59
2017-01-22T06:31:02.636Z,-59
2017-01-22T06:32:02.595Z,-59
2017-01-22T06:33:02.632Z,-57
2017-01-22T06:34:02.621Z,-59
2017-01-22T06:35:02.637Z,-59
2017-01-22T06:36:02.632Z,-59
2017-01-22T06:37:02.619Z,-60
2017-01-22T06:38:02.621Z,-60
2017-01-22T06:39:02.649Z,-58
2017-01-22T06:40:02.654Z,-58
2017-01-22T06:41:02.647Z,-61
2017-01-22T06:42:02.615Z,-58
2017-01-22T06:43:02.613Z,-58
2017-01-22T06:44:02.636Z,-58
2017-01-22T06:45:02.625Z,-58
2017-01-22T06:46:02.659Z,-58
2017-01-22T06:47:02.647Z,-58
2017-01-22T06:48:02.627Z,-59
2017-01-22T06:49:02.613Z,-59
2017-01-22T06:50:02.614Z,-58
2017-01-22T06:51:02.614Z,-59
2017-01-22T06:52:02.640Z,-58
2017-01-22T06:53:02.622Z,-59
2017-01-22T06:54:02.640Z,-59
2017-01-22T06:55:02.648Z,-59
2017-01-22T06:56:02.634Z,-58
2017-01-22T06:57:02.671Z,-59
2017-01-22T06:58:02.624Z,-58
2017-01-22T06:59:02.641Z,-60
2017-01-22T07:00:02.663Z,-60
2017-01-22T07:01:02.639Z,-59
2017-01-22T07:02:02.649Z,-59
2017-01-22T07:03:02.650Z,-60
2017-01-22T07:04:02.649Z,-59
2017-01-22T07:05:02.639Z,-59
2017-01-22T07:06:02.641Z,-59
2017-01-22T07:07:02.656Z,-56
2017-01-22T07:08:02.640Z,-58
2017-01-22T07:09:02.637Z,-59
2017-01-22T07:10:02.655Z,-60
2017-01-22T07:11:02.649Z,-61
2017-01-22T07:12:02.663Z,-59
2017-01-22T07:13:02.637Z,-59
2017-01-22T07:14:02.633Z,-58
2017-01-22T07:15:02.622Z,-59
2017-01-22T07:16:02.632Z,-59
2017-01-22T07:17:02.683Z,-59
2017-01-22T07:18:02.634Z,-59
2017-01-22T07:19:02.662Z,-58
2017-01-22T07:20:02.673Z,-58
2017-01-22T07:21:02.647Z,-59
2017-01-22T07:22:02.638Z,-58
2017-01-22T07:23:02.616Z,-58
2017-01-22T07:24:02.639Z,-59
2017-01-22T07:25:02.673Z,-61
2017-01-22T07:26:02.658Z,-59
2017-01-22T07:27:02.634Z,-56
2017-01-22T07:28:02.623Z,-61
2017-01-22T07:29:02.640Z,-60
2017-01-22T07:30:02.641Z,-60
2017-01-22T07:31:02.664Z,-60
2017-01-22T07:32:02.687Z,-60
2017-01-22T07:33:02.613Z,-60
2017-01-22T07:34:02.642Z,-60
2017-01-22T07:35:02.662Z,-59
2017-01-22T07:36:02.657Z,-59
2017-01-22T07:37:02.648Z,-60
2017-01-22T07:38:02.664Z,-60
2017-01-22T07:39:02.624Z,-60
2017-01-22T07:40:02.667Z,-58
2017-01-22T07:41:02.654Z,-58
2017-01-22T07:42:02.643Z,-59
2017-01-22T07:43:02.645Z,-58
2017-01-22T07:44:02.677Z,-59
2017-01-22T07:45:02.680Z,-59
2017-01-22T07:46:02.651Z,-58
2017-01-22T07:47:02.683Z,-57
2017-01-22T07:48:02.697Z,-58
2017-01-22T07:49:02.663Z,-59
2017-01-22T07:50:02.655Z,-59
2017-01-22T07:51:02.690Z,-58
2017-01-22T07:52:02.666Z,-59
2017-01-22T07:53:02.655Z,-61
2017-01-22T07:54:02.679Z,-59
2017-01-22T07:55:02.677Z,-58
2017-01-22T07:56:02.678Z,-58
2017-01-22T07:57:02.680Z,-57
2017-01-22T07:58:02.691Z,-57
2017-01-22T07:59:02.661Z,-58
2017-01-22T08:00:02.683Z,-58
2017-01-22T08:01:02.707Z,-59
2017-01-22T08:02:02.697Z,-60
2017-01-22T08:03:02.686Z,-60
2017-01-22T08:04:02.678Z,-60
2017-01-22T08:05:02.653Z,-60
2017-01-22T08:06:02.690Z,-59
2017-01-22T08:07:02.654Z,-60
2017-01-22T08:08:02.663Z,-59
2017-01-22T08:09:02.728Z,-60
2017-01-22T08:10:02.684Z,-60
2017-01-22T08:11:02.696Z,-60
2017-01-22T08:12:02.750Z,-58
2017-01-22T08:13:02.687Z,-59
2017-01-22T08:14:02.665Z,-58
2017-01-22T08:15:02.699Z,-59
2017-01-22T08:16:02.783Z,-60
2017-01-22T08:17:02.686Z,-60
2017-01-22T08:18:02.699Z,-60
2017-01-22T08:19:02.684Z,-59
2017-01-22T08:20:02.700Z,-59
2017-01-22T08:21:02.660Z,-60
2017-01-22T08:22:02.687Z,-60
2017-01-22T08:23:02.740Z,-59
2017-01-22T08:24:02.788Z,-59
2017-01-22T08:25:02.725Z,-61
2017-01-22T08:26:02.666Z,-58
2017-01-22T08:27:02.681Z,-59
2017-01-22T08:28:02.666Z,-59
2017-01-22T08:29:02.661Z,-60
2017-01-22T08:30:02.660Z,-60
2017-01-22T08:31:02.683Z,-58
2017-01-22T08:32:02.674Z,-59
2017-01-22T08:33:02.669Z,-60
2017-01-22T08:34:02.661Z,-59
2017-01-22T08:35:02.713Z,-59
2017-01-22T08:36:02.719Z,-59
2017-01-22T08:37:02.678Z,-59
2017-01-22T08:38:02.673Z,-58
2017-01-22T08:39:02.710Z,-59
2017-01-22T08:40:09.042Z,-59
2017-01-22T08:41:03.222Z,-57
2017-01-22T08:42:02.722Z,-60
2017-01-22T08:43:04.797Z,-59
2017-01-22T08:44:02.708Z,-60
2017-01-22T08:45:02.732Z,-59
2017-01-22T08:46:02.877Z,-58
2017-01-22T08:47:02.683Z,-58
2017-01-22T08:48:02.729Z,-60
2017-01-22T08:49:04.587Z,-60
2017-01-22T08:50:02.718Z,-60
2017-01-22T08:51:03.408Z,-59
2017-01-22T08:52:02.711Z,-60
2017-01-22T08:53:03.754Z,-59
2017-01-22T08:54:02.786Z,-58
2017-01-22T08:55:02.694Z,-59
2017-01-22T08:56:02.687Z,-59
2017-01-22T08:57:02.663Z,-59
2017-01-22T08:58:02.679Z,-59
2017-01-22T08:59:02.703Z,-59
2017-01-22T09:00:02.721Z,-60
2017-01-22T09:01:02.723Z,-59
2017-01-22T09:02:02.739Z,-58
2017-01-22T09:03:02.714Z,-58
2017-01-22T09:04:02.732Z,-59
2017-01-22T09:05:02.971Z,-58
2017-01-22T09:06:02.855Z,-60
2017-01-22T09:07:02.721Z,-60
2017-01-22T09:08:02.692Z,-59
2017-01-22T09:09:02.857Z,-59
2017-01-22T09:10:02.714Z,-59
2017-01-22T09:11:02.724Z,-59
2017-01-22T09:12:02.727Z,-60
2017-01-22T09:13:02.695Z,-57
2017-01-22T09:14:02.703Z,-59
2017-01-22T09:15:02.717Z,-59
2017-01-22T09:16:02.811Z,-59
2017-01-22T09:17:02.722Z,-59
2017-01-22T09:18:02.741Z,-60
2017-01-22T09:19:02.745Z,-59
2017-01-22T09:20:02.777Z,-59
2017-01-22T09:21:02.922Z,-59
2017-01-22T09:22:02.730Z,-59
2017-01-22T09:23:02.777Z,-59
2017-01-22T09:24:03.039Z,-58
2017-01-22T09:25:02.790Z,-58
2017-01-22T09:26:02.749Z,-59
2017-01-22T09:27:02.789Z,-58
2017-01-22T09:28:02.743Z,-59
2017-01-22T09:29:03.615Z,-59
2017-01-22T09:30:03.273Z,-59
2017-01-22T09:31:02.733Z,-58
2017-01-22T09:32:03.269Z,-59
2017-01-22T09:33:03.030Z,-59
2017-01-22T09:34:02.727Z,-59
2017-01-22T09:35:03.061Z,-59
2017-01-22T09:36:03.123Z,-59
2017-01-22T09:37:02.710Z,-60
2017-01-22T09:38:02.750Z,-60
2017-01-22T09:39:02.789Z,-59
2017-01-22T09:40:02.821Z,-59
2017-01-22T09:41:02.835Z,-59
2017-01-22T09:42:02.727Z,-59
2017-01-22T09:43:02.719Z,-59
2017-01-22T09:44:02.728Z,-60
2017-01-22T09:45:02.790Z,-60
2017-01-22T09:46:02.720Z,-59
2017-01-22T09:47:02.745Z,-59
2017-01-22T09:48:02.778Z,-58
2017-01-22T09:49:02.767Z,-60
2017-01-22T09:50:02.700Z,-59
2017-01-22T09:51:02.744Z,-59
2017-01-22T09:52:02.747Z,-59
2017-01-22T09:53:02.748Z,-59
2017-01-22T09:54:02.730Z,-59
2017-01-22T09:55:02.750Z,-61
2017-01-22T09:56:02.758Z,-59
2017-01-22T09:57:02.705Z,-58
2017-01-22T09:58:02.747Z,-56
2017-01-22T09:59:02.745Z,-59
2017-01-22T10:00:02.739Z,-59
2017-01-22T10:01:02.764Z,-59
2017-01-22T10:02:02.751Z,-59
2017-01-22T10:03:02.782Z,-58
2017-01-22T10:04:02.766Z,-60
2017-01-22T10:05:02.754Z,-59
2017-01-22T10:06:02.965Z,-59
2017-01-22T10:07:02.736Z,-59
2017-01-22T10:08:02.738Z,-58
2017-01-22T10:09:02.787Z,-59
2017-01-22T10:10:02.763Z,-59
2017-01-22T10:11:02.791Z,-59
2017-01-22T10:12:02.745Z,-59
2017-01-22T10:13:02.774Z,-57
2017-01-22T10:14:02.741Z,-58
2017-01-22T10:15:02.764Z,-59
2017-01-22T10:16:02.755Z,-59
2017-01-22T10:17:02.751Z,-59
2017-01-22T10:18:02.831Z,-59
2017-01-22T10:19:02.737Z,-59
2017-01-22T10:20:02.748Z,-59
2017-01-22T10:21:02.745Z,-58
2017-01-22T10:22:02.800Z,-59
2017-01-22T10:23:02.784Z,-59
2017-01-22T10:24:02.801Z,-57
2017-01-22T10:25:02.794Z,-59
2017-01-22T10:26:02.826Z,-59
2017-01-22T10:27:02.756Z,-58
2017-01-22T10:28:02.736Z,-60
2017-01-22T10:29:02.789Z,-59
2017-01-22T10:30:02.761Z,-58
2017-01-22T10:31:02.773Z,-58
2017-01-22T10:32:02.774Z,-60
2017-01-22T10:33:02.739Z,-56
2017-01-22T10:34:02.768Z,-58
2017-01-22T10:35:02.791Z,-60
2017-01-22T10:36:02.765Z,-60
2017-01-22T10:37:02.764Z,-60
2017-01-22T10:38:02.788Z,-59
2017-01-22T10:39:02.783Z,-60
2017-01-22T10:40:02.772Z,-59
2017-01-22T10:41:02.765Z,-59
2017-01-22T10:42:02.763Z,-60
2017-01-22T10:43:02.759Z,-59
2017-01-22T10:44:02.778Z,-59
2017-01-22T10:45:02.731Z,-59
2017-01-22T10:46:02.779Z,-58
2017-01-22T10:47:02.766Z,-59
2017-01-22T10:48:02.767Z,-57
2017-01-22T10:49:02.748Z,-59
2017-01-22T10:50:02.765Z,-59
2017-01-22T10:51:02.765Z,-60
2017-01-22T10:52:02.752Z,-59
2017-01-22T10:53:02.795Z,-69
2017-01-22T10:54:02.849Z,-58
2017-01-22T10:55:02.784Z,-59
2017-01-22T10:56:02.844Z,-62
2017-01-22T10:57:02.799Z,-64
2017-01-22T10:58:02.773Z,-58
2017-01-22T10:59:02.773Z,-58
2017-01-22T11:00:02.818Z,-62
2017-01-22T11:01:02.767Z,-58
2017-01-22T11:02:02.784Z,-59
2017-01-22T11:03:02.780Z,-59
2017-01-22T11:04:02.762Z,-58
2017-01-22T11:05:02.792Z,-63
2017-01-22T11:06:02.776Z,-62
2017-01-22T11:07:02.785Z,-62
2017-01-22T11:08:02.789Z,-61
2017-01-22T11:09:02.819Z,-63
2017-01-22T11:10:02.781Z,-63
2017-01-22T11:11:02.777Z,-63
2017-01-22T11:12:02.818Z,-63
2017-01-22T11:13:02.850Z,-62
2017-01-22T11:14:02.807Z,-64
2017-01-22T11:15:02.839Z,-62
2017-01-22T11:16:02.767Z,-62
2017-01-22T11:17:02.796Z,-59
2017-01-22T11:18:02.782Z,-59
2017-01-22T11:19:02.868Z,-61
2017-01-22T11:20:02.814Z,-63
2017-01-22T11:21:02.772Z,-63
2017-01-22T11:22:02.790Z,-63
2017-01-22T11:23:02.792Z,-63
2017-01-22T11:24:02.815Z,-59
2017-01-22T11:25:02.848Z,-63
2017-01-22T11:26:03.820Z,-62
2017-01-22T11:27:02.800Z,-61
2017-01-22T11:28:02.797Z,-62
2017-01-22T11:29:02.812Z,-62
2017-01-22T11:30:02.834Z,-62
2017-01-22T11:31:02.809Z,-63
2017-01-22T11:32:02.845Z,-63
2017-01-22T11:33:02.871Z,-60
2017-01-22T11:34:02.776Z,-62
2017-01-22T11:35:02.792Z,-63
2017-01-22T11:36:02.806Z,-61
2017-01-22T11:37:02.800Z,-62
2017-01-22T11:38:02.826Z,-64
2017-01-22T11:39:02.819Z,-57
2017-01-22T11:40:02.791Z,-61
2017-01-22T11:41:02.804Z,-58
2017-01-22T11:42:02.780Z,-59
2017-01-22T11:43:02.797Z,-58
2017-01-22T11:44:03.956Z,-64
2017-01-22T11:45:02.816Z,-63
2017-01-22T11:46:03.766Z,-63
2017-01-22T11:47:02.827Z,-63
2017-01-22T11:48:03.209Z,-63
2017-01-22T11:49:02.816Z,-65
2017-01-22T11:50:02.789Z,-64
2017-01-22T11:51:02.809Z,-63
2017-01-22T11:52:02.813Z,-64
2017-01-22T11:53:02.860Z,-63
2017-01-22T11:54:02.780Z,-63
2017-01-22T11:55:02.855Z,-63
2017-01-22T11:56:02.798Z,-63
2017-01-22T11:57:02.836Z,-62
2017-01-22T11:58:02.810Z,-62
2017-01-22T11:59:02.787Z,-63
2017-01-22T12:00:02.785Z,-64
2017-01-22T12:01:02.840Z,-64
2017-01-22T12:02:02.876Z,-65
2017-01-22T12:03:02.819Z,-61
2017-01-22T12:04:02.815Z,-65
2017-01-22T12:05:02.822Z,-64
2017-01-22T12:06:02.853Z,-65
2017-01-22T12:07:02.834Z,-63
2017-01-22T12:08:02.852Z,-63
2017-01-22T12:09:02.865Z,-64
2017-01-22T12:10:02.844Z,-64
2017-01-22T12:11:02.821Z,-61
2017-01-22T12:12:02.827Z,-61
2017-01-22T12:13:02.861Z,-64
2017-01-22T12:14:02.831Z,-64
2017-01-22T12:15:02.811Z,-64
2017-01-22T12:16:02.824Z,-65
2017-01-22T12:17:02.859Z,-63
2017-01-22T12:18:02.798Z,-60
2017-01-22T12:19:02.847Z,-59
2017-01-22T12:20:02.860Z,-60
2017-01-22T12:21:02.809Z,-60
2017-01-22T12:22:02.824Z,-60
2017-01-22T12:23:02.848Z,-59
2017-01-22T12:24:02.854Z,-60
2017-01-22T12:25:02.859Z,-63
2017-01-22T12:26:02.838Z,-59
2017-01-22T12:27:02.841Z,-59
2017-01-22T12:28:02.836Z,-59
2017-01-22T12:29:02.864Z,-59
2017-01-22T12:30:02.843Z,-59
2017-01-22T12:31:02.799Z,-59
2017-01-22T12:32:02.806Z,-63
2017-01-22T12:33:02.815Z,-64
2017-01-22T12:34:02.842Z,-58
2017-01-22T12:35:02.832Z,-64
2017-01-22T12:36:02.888Z,-60
2017-01-22T12:37:02.860Z,-64
2017-01-22T12:38:03.861Z,-63
2017-01-22T12:39:02.834Z,-63
2017-01-22T12:40:02.845Z,-63
2017-01-22T12:41:02.849Z,-65
2017-01-22T12:42:02.868Z,-64
2017-01-22T12:43:02.882Z,-64
2017-01-22T12:44:02.872Z,-63
2017-01-22T12:45:02.852Z,-63
2017-01-22T12:46:02.855Z,-63
2017-01-22T12:47:02.859Z,-63
2017-01-22T12:48:02.909Z,-64
2017-01-22T12:49:02.849Z,-60
2017-01-22T12:50:02.883Z,-59
2017-01-22T12:51:02.867Z,-59
2017-01-22T12:52:02.854Z,-59
2017-01-22T12:53:02.853Z,-59
2017-01-22T12:54:03.133Z,-60
2017-01-22T12:55:02.855Z,-59
2017-01-22T12:56:02.867Z,-59
2017-01-22T12:57:02.861Z,-59
2017-01-22T12:58:02.868Z,-60
2017-01-22T12:59:02.837Z,-60
2017-01-22T13:00:02.877Z,-60
2017-01-22T13:01:02.901Z,-60
2017-01-22T13:02:03.004Z,-60
2017-01-22T13:03:03.471Z,-63
2017-01-22T13:04:02.873Z,-64
2017-01-22T13:05:02.848Z,-67
2017-01-22T13:06:02.869Z,-62
2017-01-22T13:07:02.887Z,-63
2017-01-22T13:08:03.761Z,-62
2017-01-22T13:09:02.881Z,-63
2017-01-22T13:10:03.113Z,-63
2017-01-22T13:11:03.883Z,-62
2017-01-22T13:12:03.351Z,-63
2017-01-22T13:13:02.879Z,-62
2017-01-22T13:14:02.876Z,-62
2017-01-22T13:15:02.881Z,-61
2017-01-22T13:16:02.870Z,-58
2017-01-22T13:17:02.909Z,-60
2017-01-22T13:18:02.906Z,-59
2017-01-22T13:19:02.879Z,-59
2017-01-22T13:20:02.888Z,-65
2017-01-22T13:21:02.870Z,-62
2017-01-22T13:22:02.862Z,-63
2017-01-22T13:23:02.888Z,-63
2017-01-22T13:24:02.844Z,-63
2017-01-22T13:25:02.914Z,-64
2017-01-22T13:26:02.905Z,-63
2017-01-22T13:27:02.870Z,-63
2017-01-22T13:28:02.870Z,-64
2017-01-22T13:29:02.859Z,-62
2017-01-22T13:30:02.933Z,-65
2017-01-22T13:31:02.872Z,-62
2017-01-22T13:32:02.880Z,-64
2017-01-22T13:33:02.897Z,-63
2017-01-22T13:34:02.923Z,-63
2017-01-22T13:35:02.902Z,-63
2017-01-22T13:36:02.930Z,-63
2017-01-22T13:37:02.904Z,-60
2017-01-22T13:38:02.861Z,-62
2017-01-22T13:39:02.887Z,-60
2017-01-22T13:40:02.863Z,-60
2017-01-22T13:41:02.887Z,-60
2017-01-22T13:42:02.950Z,-62
2017-01-22T13:43:02.912Z,-64
2017-01-22T13:44:02.882Z,-61
2017-01-22T13:45:05.774Z,-60
2017-01-22T13:46:03.000Z,-61